Time;durP1;ratioP1;P1;durP2;ratioP2;P2;SDS_P1;SDS_P2;PMS_P1;PMS_P2;Temp;Humidity;BMP_temperature;BMP_pressure;BME280_temperature;BME280_humidity;BME280_pressure;Samples;Min_cycle;Max_cycle;Signal;HPM_P1;HPM_P2
2022/12/25 00:00:40;;;;;;;66.45;15.05;;;6.50;99.90;;;;;;4999371;28;20045;-83
2022/12/25 00:03:07;;;;;;;54.45;13.88;;;6.50;99.90;;;;;;5014990;28;20444;-81
2022/12/25 00:05:33;;;;;;;56.83;14.82;;;6.40;99.90;;;;;;4998856;28;20045;-81
2022/12/25 00:07:58;;;;;;;67.85;14.50;;;6.50;99.90;;;;;;5014880;28;20082;-80
2022/12/25 00:10:24;;;;;;;59.83;14.98;;;7.00;99.90;;;;;;5015036;28;20136;-81
2022/12/25 00:12:50;;;;;;;70.57;16.13;;;6.80;99.90;;;;;;5014723;28;20457;-81
2022/12/25 00:15:15;;;;;;;62.13;16.13;;;6.40;99.90;;;;;;5014827;28;20049;-81
2022/12/25 00:17:41;;;;;;;59.83;14.85;;;6.50;99.90;;;;;;5014818;28;20137;-81
2022/12/25 00:20:08;;;;;;;63.00;16.58;;;6.60;99.90;;;;;;5031267;28;20099;-81
2022/12/25 00:22:33;;;;;;;56.65;13.77;;;6.40;99.90;;;;;;5015182;28;20088;-81
2022/12/25 00:24:59;;;;;;;57.58;13.43;;;7.20;99.90;;;;;;5031475;28;20475;-81
2022/12/25 00:27:25;;;;;;;61.50;17.17;;;6.50;99.90;;;;;;5014681;28;20457;-81
2022/12/25 00:29:51;;;;;;;67.07;15.63;;;7.80;99.90;;;;;;5031096;28;20060;-82
2022/12/25 00:32:16;;;;;;;75.45;17.20;;;6.50;99.90;;;;;;4998219;28;20459;-81
2022/12/25 00:34:42;;;;;;;51.28;15.20;;;6.60;99.90;;;;;;5014695;28;20037;-81
2022/12/25 00:37:08;;;;;;;49.65;12.73;;;7.30;99.90;;;;;;4998379;28;20040;-81
2022/12/25 00:39:33;;;;;;;49.95;13.88;;;6.50;99.90;;;;;;5015139;28;20045;-81
2022/12/25 00:42:17;;;;;;;54.70;13.95;;;7.60;99.90;;;;;;5014888;28;20052;-81
2022/12/25 00:44:47;;;;;;;67.82;14.63;;;6.40;99.90;;;;;;5003205;28;20037;-81
2022/12/25 00:47:13;;;;;;;51.22;13.85;;;6.80;99.90;;;;;;5015316;28;20099;-81
2022/12/25 00:49:39;;;;;;;52.50;13.75;;;7.60;99.90;;;;;;5019184;28;20090;-81
2022/12/25 00:52:07;;;;;;;64.50;13.90;;;6.50;99.90;;;;;;5018997;28;20451;-82
2022/12/25 00:54:33;;;;;;;57.22;15.00;;;7.20;99.90;;;;;;5035417;28;20095;-81
2022/12/25 00:56:59;;;;;;;64.22;16.05;;;6.50;99.90;;;;;;5035263;28;20080;-81
2022/12/25 00:59:24;;;;;;;48.03;15.57;;;7.00;99.90;;;;;;5018667;28;20030;-81
2022/12/25 01:01:50;;;;;;;59.13;14.00;;;6.50;99.90;;;;;;5034634;28;20049;-81
2022/12/25 01:04:16;;;;;;;66.47;14.98;;;6.50;99.90;;;;;;5018556;28;20041;-81
2022/12/25 01:06:42;;;;;;;55.75;14.80;;;6.50;99.90;;;;;;5018310;28;20534;-81
2022/12/25 01:11:52;;;;;;;48.63;13.50;;;6.50;99.90;;;;;;5021091;28;20041;-81
2022/12/25 01:14:18;;;;;;;51.83;14.55;;;6.50;99.90;;;;;;5035221;28;20151;-81
2022/12/25 01:16:43;;;;;;;38.78;14.02;;;6.50;99.90;;;;;;5052608;28;20091;-80
2022/12/25 01:19:10;;;;;;;53.17;16.25;;;6.50;99.90;;;;;;5034755;28;20041;-81
2022/12/25 01:21:36;;;;;;;64.97;15.98;;;6.60;99.90;;;;;;5034597;28;20051;-81
2022/12/25 01:24:02;;;;;;;50.85;14.48;;;7.70;99.90;;;;;;5034581;28;20044;-81
2022/12/25 01:26:28;;;;;;;59.72;14.48;;;6.60;99.90;;;;;;5001891;28;20136;-81
2022/12/25 01:28:53;;;;;;;60.13;16.25;;;7.10;99.90;;;;;;5034491;28;20403;-80
2022/12/25 01:31:21;;;;;;;51.50;15.07;;;6.60;99.90;;;;;;5018002;28;20048;-81
2022/12/25 01:33:48;;;;;;;55.30;14.95;;;7.70;99.90;;;;;;5034034;28;20045;-81
2022/12/25 01:36:25;;;;;;;64.18;16.42;;;6.60;99.90;;;;;;5017715;28;20052;-80
2022/12/25 01:38:52;;;;;;;56.47;15.27;;;6.70;99.90;;;;;;5017740;28;20104;-80
2022/12/25 01:41:21;;;;;;;63.22;16.48;;;6.70;99.90;;;;;;5052106;28;20155;-81
2022/12/25 01:44:27;;;;;;;59.38;16.48;;;6.80;99.90;;;;;;5017741;28;20044;-81
2022/12/25 01:46:53;;;;;;;69.03;15.07;;;6.80;99.90;;;;;;5033636;28;20132;-81
2022/12/25 01:49:22;;;;;;;85.10;16.13;;;6.80;99.90;;;;;;5017683;28;20143;-81
2022/12/25 01:51:54;;;;;;;59.30;15.43;;;6.80;99.90;;;;;;5017533;28;20118;-81
2022/12/25 01:54:33;;;;;;;68.28;16.30;;;6.80;99.90;;;;;;5017350;28;20114;-80
2022/12/25 01:57:02;;;;;;;72.30;16.27;;;6.80;99.90;;;;;;5034369;28;20037;-80
2022/12/25 01:59:29;;;;;;;77.22;17.98;;;6.80;99.90;;;;;;5033833;28;20124;-80
2022/12/25 02:01:55;;;;;;;79.90;17.60;;;8.00;99.90;;;;;;5017702;28;20037;-81
2022/12/25 02:04:37;;;;;;;79.65;17.67;;;6.90;99.90;;;;;;5034075;28;20403;-81
2022/12/25 02:07:25;;;;;;;62.90;16.20;;;6.90;99.90;;;;;;5034378;28;20131;-81
2022/12/25 02:09:52;;;;;;;55.83;15.38;;;6.90;99.90;;;;;;5017973;28;20450;-80
2022/12/25 02:12:20;;;;;;;63.95;17.30;;;6.90;99.90;;;;;;5018594;28;20072;-81
2022/12/25 02:14:48;;;;;;;85.55;16.63;;;7.80;99.90;;;;;;5017568;28;20495;-80
2022/12/25 02:17:33;;;;;;;86.50;19.45;;;7.00;99.90;;;;;;5017053;28;20044;-81
2022/12/25 02:20:04;;;;;;;66.70;15.65;;;7.00;99.90;;;;;;5033366;28;20053;-81
2022/12/25 02:23:04;;;;;;;67.50;17.65;;;7.00;99.90;;;;;;5017118;28;20064;-80
2022/12/25 02:25:54;;;;;;;65.68;16.45;;;7.00;99.90;;;;;;5033484;28;20136;-81
2022/12/25 02:28:44;;;;;;;83.13;17.23;;;7.00;99.90;;;;;;5016844;28;20045;-80
2022/12/25 02:31:34;;;;;;;66.05;16.77;;;7.00;99.90;;;;;;5033256;28;20057;-81
2022/12/25 02:34:16;;;;;;;58.55;17.13;;;7.00;99.90;;;;;;5032408;28;20089;-80
2022/12/25 02:37:00;;;;;;;70.15;16.23;;;7.00;99.90;;;;;;5016394;28;20045;-81
2022/12/25 02:39:58;;;;;;;74.00;17.42;;;7.10;99.90;;;;;;5016681;28;20528;-80
2022/12/25 03:07:45;;;;;;;57.65;17.45;;;7.30;99.90;;;;;;5031542;28;20102;-81
2022/12/25 03:13:07;;;;;;;58.47;16.63;;;7.40;99.90;;;;;;5031270;28;20077;-80
2022/12/25 03:18:25;;;;;;;70.35;18.20;;;7.60;99.90;;;;;;5031513;28;20115;-81
2022/12/25 03:31:10;;;;;;;45.42;15.35;;;7.60;99.90;;;;;;5017496;28;20107;-81
2022/12/25 03:32:08;;;;;;;49.05;15.43;;;7.60;99.90;;;;;;5004897;28;20049;-81
2022/12/25 04:37:15;;;;;;;63.67;17.25;;;7.70;99.90;;;;;;5016158;28;20041;-80
2022/12/25 04:39:41;;;;;;;54.95;16.67;;;7.90;99.90;;;;;;4997078;28;20509;-80
2022/12/25 04:42:07;;;;;;;51.22;17.20;;;8.00;99.90;;;;;;5029897;28;20041;-81
2022/12/25 04:44:32;;;;;;;57.90;16.73;;;7.80;99.90;;;;;;5012912;28;20041;-80
2022/12/25 04:46:58;;;;;;;71.57;18.02;;;7.80;99.90;;;;;;5030136;28;20136;-80
2022/12/25 04:49:24;;;;;;;65.45;19.25;;;7.90;99.90;;;;;;5013311;28;20044;-80
2022/12/25 04:51:49;;;;;;;70.38;18.52;;;7.90;99.90;;;;;;5030327;28;20594;-80
2022/12/25 04:54:15;;;;;;;54.20;17.75;;;7.90;99.90;;;;;;5029421;28;20167;-80
2022/12/25 04:56:41;;;;;;;56.70;17.90;;;7.90;99.90;;;;;;5029817;28;20094;-80
2022/12/25 04:59:07;;;;;;;58.25;18.02;;;8.60;99.90;;;;;;5014216;28;20056;-81
2022/12/25 05:01:32;;;;;;;66.35;19.58;;;8.00;99.90;;;;;;4997245;28;20624;-81
2022/12/25 05:03:58;;;;;;;62.17;18.15;;;8.50;99.90;;;;;;5031030;28;20045;-80
2022/12/25 05:06:24;;;;;;;53.70;19.10;;;8.10;99.90;;;;;;5029431;28;20095;-80
2022/12/25 05:08:50;;;;;;;70.82;18.17;;;8.00;99.90;;;;;;5013502;28;20578;-80
2022/12/25 05:11:16;;;;;;;61.20;17.80;;;8.10;99.90;;;;;;4996731;28;20068;-80
2022/12/25 05:13:42;;;;;;;59.17;17.15;;;9.40;99.90;;;;;;5013601;28;20071;-80
2022/12/25 05:16:14;;;;;;;57.47;18.05;;;8.50;99.90;;;;;;5029735;28;20088;-81
2022/12/25 05:18:41;;;;;;;66.17;19.07;;;8.10;99.90;;;;;;5012577;28;20045;-81
2022/12/25 05:21:06;;;;;;;51.92;18.92;;;7.90;99.90;;;;;;5013277;28;20136;-80
2022/12/25 05:23:33;;;;;;;62.47;18.65;;;8.20;99.90;;;;;;5012980;28;20124;-80
2022/12/25 05:26:08;;;;;;;63.15;17.95;;;8.20;99.90;;;;;;5013975;28;20449;-81
2022/12/25 05:28:34;;;;;;;53.40;17.42;;;8.20;99.90;;;;;;5029194;28;20495;-80
2022/12/25 05:31:00;;;;;;;45.00;15.98;;;8.20;99.90;;;;;;5030046;28;20052;-81
2022/12/25 05:33:26;;;;;;;51.63;16.42;;;8.20;99.90;;;;;;4997375;28;20071;-80
2022/12/25 05:35:51;;;;;;;50.05;16.45;;;8.30;99.90;;;;;;5032913;28;20373;-81
2022/12/25 05:38:17;;;;;;;55.65;18.10;;;8.30;99.90;;;;;;5000672;28;20136;-80
2022/12/25 05:40:43;;;;;;;56.85;16.83;;;8.30;99.90;;;;;;5032524;28;20378;-80
2022/12/25 05:43:08;;;;;;;55.97;16.73;;;8.70;99.90;;;;;;5017306;28;20052;-80
2022/12/25 05:45:35;;;;;;;53.78;17.27;;;8.30;99.90;;;;;;5032402;28;20407;-80
2022/12/25 05:48:00;;;;;;;45.70;15.10;;;8.60;99.90;;;;;;5033283;28;20071;-80
2022/12/25 05:50:26;;;;;;;50.25;17.33;;;8.30;99.90;;;;;;5032421;28;20038;-80
2022/12/25 05:52:52;;;;;;;41.88;16.63;;;9.10;99.90;;;;;;5000191;28;20110;-80
2022/12/25 05:55:18;;;;;;;58.92;18.35;;;8.30;99.90;;;;;;5016786;28;20501;-81
2022/12/25 05:57:43;;;;;;;44.55;17.02;;;8.70;99.90;;;;;;5015998;28;20480;-81
2022/12/25 06:00:10;;;;;;;42.65;16.48;;;8.30;99.90;;;;;;4999895;28;20045;-80
2022/12/25 06:02:36;;;;;;;57.25;17.23;;;8.30;99.90;;;;;;5032007;28;20060;-80
2022/12/25 06:05:03;;;;;;;45.92;16.58;;;8.30;99.90;;;;;;4983944;28;20052;-81
2022/12/25 06:07:29;;;;;;;56.25;16.42;;;8.30;99.90;;;;;;5032098;28;20134;-80
2022/12/25 06:09:54;;;;;;;52.45;18.40;;;8.30;99.90;;;;;;5016080;28;20091;-81
2022/12/25 06:12:20;;;;;;;61.30;18.77;;;8.30;99.90;;;;;;5032511;28;20056;-81
2022/12/25 06:14:46;;;;;;;62.47;18.00;;;8.30;99.90;;;;;;4998852;28;20041;-80
2022/12/25 06:17:12;;;;;;;67.47;18.60;;;8.30;99.90;;;;;;5016049;28;20041;-80
2022/12/25 06:19:38;;;;;;;65.97;19.02;;;8.30;99.90;;;;;;5031744;28;20037;-80
2022/12/25 06:22:03;;;;;;;57.65;18.17;;;8.30;99.90;;;;;;5016265;28;20041;-80
2022/12/25 06:24:29;;;;;;;56.50;21.20;;;8.30;99.90;;;;;;5016062;28;20049;-80
2022/12/25 06:26:55;;;;;;;61.63;19.00;;;8.30;99.90;;;;;;5016449;28;20045;-81
2022/12/25 06:29:20;;;;;;;66.00;20.63;;;8.30;99.90;;;;;;5016470;28;20490;-81
2022/12/25 06:31:46;;;;;;;68.80;20.45;;;8.30;99.90;;;;;;4998929;28;20546;-80
2022/12/25 06:34:15;;;;;;;66.05;20.52;;;9.40;99.90;;;;;;5015734;28;20048;-81
2022/12/25 06:36:41;;;;;;;72.28;19.48;;;8.30;99.90;;;;;;5031290;28;20122;-81
2022/12/25 06:39:08;;;;;;;60.10;19.20;;;8.30;99.90;;;;;;5015969;28;20045;-81
2022/12/25 06:41:34;;;;;;;61.38;20.58;;;8.30;99.90;;;;;;4999088;28;20080;-81
2022/12/25 06:44:00;;;;;;;73.95;20.58;;;8.40;99.90;;;;;;5016025;28;20111;-81
2022/12/25 06:46:28;;;;;;;62.75;20.50;;;8.30;99.90;;;;;;5015474;28;20040;-81
2022/12/25 06:48:55;;;;;;;52.80;20.10;;;8.40;99.90;;;;;;5014769;28;20041;-81
2022/12/25 06:51:23;;;;;;;59.85;20.15;;;8.40;99.90;;;;;;5015212;28;20107;-80
2022/12/25 06:53:50;;;;;;;61.25;21.20;;;8.40;99.90;;;;;;5014540;28;20543;-81
2022/12/25 06:56:19;;;;;;;70.80;20.38;;;8.70;99.90;;;;;;4999175;28;20049;-81
2022/12/25 06:58:54;;;;;;;54.95;21.33;;;9.60;99.90;;;;;;5014966;28;20395;-80
2022/12/25 07:01:29;;;;;;;64.00;19.55;;;8.40;99.90;;;;;;5032038;28;20106;-81
2022/12/25 07:04:01;;;;;;;67.20;21.08;;;8.40;99.90;;;;;;5032115;28;20044;-81
2022/12/25 07:06:28;;;;;;;69.27;20.70;;;8.70;99.90;;;;;;5031027;28;20112;-80
2022/12/25 07:08:53;;;;;;;64.57;21.27;;;8.40;99.90;;;;;;5014996;28;20098;-80
2022/12/25 07:11:20;;;;;;;64.90;21.77;;;8.70;99.90;;;;;;5014131;28;20127;-81
2022/12/25 07:13:46;;;;;;;58.42;20.75;;;8.40;99.90;;;;;;5015148;28;20055;-81
2022/12/25 07:16:13;;;;;;;70.53;20.40;;;9.00;99.90;;;;;;4998487;28;20498;-81
2022/12/25 07:18:39;;;;;;;57.22;20.80;;;8.40;99.90;;;;;;5015034;28;20506;-81
2022/12/25 07:21:12;;;;;;;60.97;20.55;;;8.40;99.90;;;;;;5014696;28;20385;-81
2022/12/25 07:23:38;;;;;;;50.20;15.30;;;8.50;99.90;;;;;;5014332;28;20142;-81
2022/12/25 07:26:04;;;;;;;59.47;19.50;;;8.40;99.90;;;;;;5031179;28;20080;-80
2022/12/25 07:28:30;;;;;;;51.70;19.50;;;8.50;99.90;;;;;;5030409;28;20049;-80
2022/12/25 07:31:08;;;;;;;56.58;19.90;;;8.50;99.90;;;;;;5014802;28;20068;-81
2022/12/25 07:33:35;;;;;;;62.95;20.10;;;8.50;99.90;;;;;;5030831;28;20045;-80
2022/12/25 07:36:01;;;;;;;52.05;19.83;;;8.50;99.90;;;;;;5030786;28;20053;-80
2022/12/25 07:38:27;;;;;;;52.97;18.77;;;8.50;99.90;;;;;;5030920;28;20040;-81
2022/12/25 07:40:53;;;;;;;50.03;19.77;;;8.50;99.90;;;;;;5013657;28;20496;-81
2022/12/25 07:43:19;;;;;;;71.22;21.52;;;8.00;99.90;;;;;;5014249;28;20041;-80
2022/12/25 07:45:45;;;;;;;67.20;21.05;;;8.50;99.90;;;;;;5030111;28;20384;-80
2022/12/25 07:48:10;;;;;;;57.63;22.20;;;8.50;99.90;;;;;;5015013;28;20114;-81
2022/12/25 07:50:36;;;;;;;60.83;20.25;;;8.50;99.90;;;;;;5014251;28;20061;-81
2022/12/25 07:53:02;;;;;;;56.90;20.27;;;8.50;99.90;;;;;;5014460;28;20132;-80
2022/12/25 07:55:28;;;;;;;41.88;19.30;;;8.50;99.90;;;;;;5014313;28;20127;-80
2022/12/25 07:57:54;;;;;;;52.97;19.77;;;8.60;99.90;;;;;;5029685;28;20403;-81
2022/12/25 08:00:20;;;;;;;54.83;20.17;;;8.60;99.90;;;;;;5014179;28;20476;-81
2022/12/25 08:02:48;;;;;;;50.58;19.63;;;8.60;99.90;;;;;;5013601;28;20052;-80
2022/12/25 08:05:14;;;;;;;57.85;20.88;;;8.60;99.90;;;;;;5014163;28;20135;-79
2022/12/25 08:07:40;;;;;;;61.28;20.58;;;8.60;99.90;;;;;;5013577;28;20136;-78
2022/12/25 08:10:06;;;;;;;53.03;18.20;;;8.70;99.90;;;;;;4997269;28;20136;-78
2022/12/25 08:12:31;;;;;;;50.63;18.38;;;8.60;99.90;;;;;;5014329;28;20045;-79
2022/12/25 08:14:57;;;;;;;52.10;19.25;;;8.70;99.90;;;;;;5029919;28;20499;-78
2022/12/25 08:17:23;;;;;;;43.58;18.80;;;8.70;99.90;;;;;;4997434;28;20037;-78
2022/12/25 08:19:49;;;;;;;48.45;19.60;;;8.70;99.90;;;;;;5013354;28;20153;-79
2022/12/25 08:22:14;;;;;;;55.00;18.48;;;8.70;99.90;;;;;;5030817;28;20510;-78
2022/12/25 08:24:40;;;;;;;44.85;17.15;;;9.50;99.90;;;;;;5029697;28;20149;-78
2022/12/25 08:27:06;;;;;;;39.95;17.33;;;8.70;99.90;;;;;;5013795;28;20052;-79
2022/12/25 08:29:32;;;;;;;43.58;17.50;;;8.70;99.90;;;;;;5030362;28;20037;-79
2022/12/25 08:31:58;;;;;;;39.08;17.30;;;8.70;99.90;;;;;;4997235;28;20401;-80
2022/12/25 08:34:25;;;;;;;45.90;17.98;;;8.70;99.90;;;;;;5013932;28;20128;-79
2022/12/25 08:36:50;;;;;;;39.88;16.55;;;8.70;99.90;;;;;;5012747;28;20488;-79
2022/12/25 08:39:16;;;;;;;51.67;17.58;;;8.70;99.90;;;;;;5030321;28;20060;-78
2022/12/25 08:41:42;;;;;;;43.15;16.20;;;9.70;99.90;;;;;;4997088;28;20049;-81
2022/12/25 08:44:10;;;;;;;41.47;15.63;;;8.80;99.90;;;;;;5030298;28;20133;-80
2022/12/25 08:46:36;;;;;;;41.25;15.25;;;8.80;99.90;;;;;;5029791;28;20052;-80
2022/12/25 08:49:02;;;;;;;33.90;15.98;;;8.90;99.90;;;;;;5013288;28;20045;-79
2022/12/25 08:51:27;;;;;;;33.92;14.63;;;8.80;99.90;;;;;;5029588;28;20060;-79
2022/12/25 08:53:58;;;;;;;34.70;14.73;;;8.80;99.90;;;;;;5029569;28;20116;-81
2022/12/25 08:56:23;;;;;;;37.65;14.90;;;8.80;99.90;;;;;;5048562;28;20094;-79
2022/12/25 08:58:49;;;;;;;28.02;14.20;;;8.80;99.90;;;;;;5047721;28;20045;-78
2022/12/25 09:01:15;;;;;;;38.25;14.80;;;8.90;99.90;;;;;;5013943;28;20446;-80
2022/12/25 09:03:42;;;;;;;35.08;14.63;;;8.80;99.90;;;;;;5029709;28;20045;-80
2022/12/25 09:06:13;;;;;;;38.83;14.40;;;8.80;99.90;;;;;;5012607;28;20049;-80
2022/12/25 09:08:39;;;;;;;33.28;13.82;;;8.80;99.90;;;;;;5030825;28;20476;-79
2022/12/25 09:11:08;;;;;;;34.97;14.40;;;9.20;99.90;;;;;;5016297;28;20055;-79
2022/12/25 09:13:34;;;;;;;47.30;12.75;;;8.80;99.90;;;;;;5018098;28;20109;-78
2022/12/25 09:16:05;;;;;;;29.70;12.25;;;8.80;99.90;;;;;;5033505;28;20255;-78
2022/12/25 09:18:31;;;;;;;22.40;11.90;;;8.80;99.90;;;;;;5017545;28;20037;-78
2022/12/25 09:20:59;;;;;;;28.30;12.80;;;8.80;99.90;;;;;;5016927;28;20411;-78
2022/12/25 09:23:25;;;;;;;28.85;12.00;;;8.90;99.90;;;;;;5016518;28;20041;-79
2022/12/25 09:25:50;;;;;;;30.48;11.88;;;8.90;99.90;;;;;;5033368;28;20049;-80
2022/12/25 09:28:16;;;;;;;30.73;12.13;;;8.90;99.90;;;;;;5016015;28;20041;-82
2022/12/25 09:30:42;;;;;;;24.05;10.30;;;8.90;99.90;;;;;;5034288;28;20052;-79
2022/12/25 09:33:07;;;;;;;24.48;12.02;;;8.90;99.90;;;;;;5050639;28;20496;-78
2022/12/25 09:35:33;;;;;;;30.30;10.93;;;8.90;99.90;;;;;;5016737;28;20533;-79
2022/12/25 09:37:59;;;;;;;26.52;11.52;;;8.90;99.90;;;;;;5033003;28;20091;-79
2022/12/25 09:40:29;;;;;;;28.25;10.68;;;8.90;99.90;;;;;;5015919;28;20037;-78
2022/12/25 09:42:57;;;;;;;23.88;10.77;;;9.00;99.90;;;;;;5016905;28;20085;-79
2022/12/25 09:45:31;;;;;;;21.38;9.50;;;8.90;99.90;;;;;;5032437;28;20147;-78
2022/12/25 09:47:57;;;;;;;22.63;9.50;;;9.10;99.90;;;;;;5033474;28;20045;-79
2022/12/25 09:50:49;;;;;;;17.45;9.93;;;8.90;99.90;;;;;;5032076;28;20041;-79
2022/12/25 09:53:30;;;;;;;23.02;7.68;;;8.90;99.90;;;;;;5032130;28;20092;-79
2022/12/25 09:56:16;;;;;;;21.15;7.93;;;8.90;99.90;;;;;;5033045;28;20377;-78
2022/12/25 09:58:42;;;;;;;24.38;8.18;;;9.20;99.90;;;;;;5032701;28;20845;-79
2022/12/25 10:01:11;;;;;;;17.35;9.35;;;8.90;99.90;;;;;;5016411;28;20071;-79
2022/12/25 10:03:49;;;;;;;19.70;8.25;;;9.50;99.90;;;;;;5032636;28;20049;-79
2022/12/25 10:06:54;;;;;;;18.67;7.93;;;9.00;99.90;;;;;;5031716;28;20099;-79
2022/12/25 10:09:48;;;;;;;23.48;8.88;;;9.00;99.90;;;;;;5033187;28;20425;-79
2022/12/25 10:12:44;;;;;;;17.33;8.57;;;8.90;99.90;;;;;;5015918;28;20060;-81
2022/12/25 10:15:47;;;;;;;20.35;7.40;;;8.90;99.90;;;;;;5032300;28;20053;-79
2022/12/25 10:18:32;;;;;;;22.98;7.90;;;9.00;99.90;;;;;;5016076;28;20091;-79
2022/12/25 10:21:00;;;;;;;20.60;6.70;;;9.00;99.90;;;;;;5015762;28;20049;-80
2022/12/25 10:23:31;;;;;;;14.38;7.15;;;9.00;99.90;;;;;;5015028;28;20493;-80
2022/12/25 10:25:57;;;;;;;14.20;7.57;;;9.00;99.90;;;;;;5032315;28;20136;-81
2022/12/25 10:28:33;;;;;;;17.10;7.60;;;9.00;99.90;;;;;;5031573;28;20044;-81
2022/12/25 10:31:14;;;;;;;13.60;6.93;;;9.00;99.90;;;;;;5015805;28;20056;-81
2022/12/25 10:33:40;;;;;;;15.20;6.78;;;8.90;99.90;;;;;;5050351;28;20053;-80
2022/12/25 10:36:08;;;;;;;12.02;7.03;;;9.70;99.90;;;;;;4998670;28;20037;-78
2022/12/25 10:38:35;;;;;;;16.60;6.40;;;9.00;99.90;;;;;;5032037;28;20049;-79
2022/12/25 10:41:22;;;;;;;15.98;7.53;;;9.00;99.90;;;;;;5014684;28;20128;-79
2022/12/25 10:43:53;;;;;;;17.20;6.78;;;9.00;99.90;;;;;;5032185;28;20496;-79
2022/12/25 10:46:21;;;;;;;18.50;7.03;;;9.00;99.90;;;;;;5031872;28;20052;-79
2022/12/25 10:48:53;;;;;;;18.15;7.10;;;9.00;99.90;;;;;;5015102;28;20047;-79
2022/12/25 10:51:34;;;;;;;17.23;6.53;;;9.20;99.90;;;;;;5011788;28;20132;-79
2022/12/25 10:54:21;;;;;;;14.43;6.00;;;9.00;99.90;;;;;;5027965;28;20085;-80
2022/12/25 10:56:56;;;;;;;14.63;6.65;;;9.10;99.90;;;;;;5028651;28;20049;-79
2022/12/25 10:59:23;;;;;;;20.15;6.63;;;9.00;99.90;;;;;;5028374;28;20052;-81
2022/12/25 11:01:49;;;;;;;13.43;5.75;;;9.10;99.90;;;;;;5011084;28;20042;-81
2022/12/25 11:04:27;;;;;;;14.75;6.05;;;9.20;99.90;;;;;;4995324;28;20056;-80
2022/12/25 11:07:05;;;;;;;17.70;6.47;;;9.10;99.90;;;;;;5011547;28;20041;-80
2022/12/25 11:09:32;;;;;;;13.95;6.20;;;9.10;99.90;;;;;;5028265;28;20519;-80
2022/12/25 11:11:59;;;;;;;15.05;6.38;;;9.60;99.90;;;;;;5011510;28;20030;-80
2022/12/25 11:14:26;;;;;;;16.75;6.10;;;9.10;99.90;;;;;;4994974;28;20082;-80
2022/12/25 11:16:52;;;;;;;20.75;6.00;;;9.10;99.90;;;;;;5011640;28;20054;-80
2022/12/25 11:19:32;;;;;;;10.52;5.10;;;9.20;99.90;;;;;;5010912;28;20079;-80
2022/12/25 11:22:00;;;;;;;16.65;6.00;;;9.20;99.90;;;;;;5012101;28;20123;-79
2022/12/25 11:24:28;;;;;;;12.38;5.57;;;9.40;99.90;;;;;;5027695;28;20041;-80
2022/12/25 11:26:56;;;;;;;9.57;5.43;;;9.30;99.90;;;;;;5028152;28;20053;-81
2022/12/25 11:29:36;;;;;;;9.65;4.57;;;9.30;99.90;;;;;;5027782;28;20079;-79
2022/12/25 11:32:04;;;;;;;15.75;5.82;;;9.40;99.90;;;;;;5028086;28;20068;-80
2022/12/25 11:34:32;;;;;;;17.23;5.97;;;8.60;99.90;;;;;;5027805;28;20416;-80
2022/12/25 11:37:01;;;;;;;11.45;5.38;;;9.40;99.90;;;;;;5026825;28;20492;-81
2022/12/25 11:39:39;;;;;;;10.93;5.38;;;9.40;99.90;;;;;;5027714;28;20052;-80
2022/12/25 11:42:21;;;;;;;9.05;4.95;;;9.40;99.90;;;;;;5027307;28;20051;-80
2022/12/25 11:44:59;;;;;;;17.10;4.78;;;9.40;99.90;;;;;;5026647;28;20136;-81
2022/12/25 11:47:36;;;;;;;12.88;5.40;;;9.40;99.90;;;;;;5027636;28;20091;-80
2022/12/25 11:50:12;;;;;;;10.65;4.78;;;9.40;99.90;;;;;;5026877;28;20046;-81
2022/12/25 11:52:42;;;;;;;10.73;4.85;;;9.40;99.90;;;;;;5010863;28;20060;-80
2022/12/25 11:55:22;;;;;;;11.43;4.47;;;9.40;99.90;;;;;;5027633;28;20041;-80
2022/12/25 11:57:56;;;;;;;10.70;4.60;;;9.50;99.90;;;;;;5026611;28;20055;-80
2022/12/25 12:00:22;;;;;;;8.85;4.60;;;9.40;99.90;;;;;;5011373;28;20064;-81
2022/12/25 12:03:14;;;;;;;12.55;5.35;;;9.50;99.90;;;;;;5026627;28;20041;-81
2022/12/25 12:05:49;;;;;;;9.30;4.20;;;9.50;99.90;;;;;;5026726;28;20524;-80
2022/12/25 12:08:15;;;;;;;10.82;5.07;;;9.40;99.90;;;;;;5027055;28;20455;-80
2022/12/25 12:10:59;;;;;;;13.07;5.13;;;9.40;99.90;;;;;;5026456;28;20049;-79
2022/12/25 12:13:45;;;;;;;8.82;4.43;;;9.50;99.90;;;;;;5027423;28;20052;-80
2022/12/25 12:16:11;;;;;;;12.38;4.00;;;9.50;99.90;;;;;;4990113;28;20050;-81
2022/12/25 12:18:37;;;;;;;11.07;4.22;;;9.60;99.90;;;;;;4994296;28;20044;-81
2022/12/25 12:21:17;;;;;;;12.23;4.20;;;9.40;99.90;;;;;;5010535;28;20050;-80
2022/12/25 12:23:55;;;;;;;11.73;4.05;;;9.40;99.90;;;;;;5026630;28;20050;-80
2022/12/25 12:26:26;;;;;;;14.52;3.92;;;9.40;99.90;;;;;;5011446;28;20717;-81
2022/12/25 12:28:57;;;;;;;17.67;6.95;;;9.40;99.90;;;;;;5010108;28;20045;-80
2022/12/25 12:31:23;;;;;;;17.55;10.07;;;9.40;99.90;;;;;;5026685;28;20489;-80
2022/12/25 12:33:56;;;;;;;11.27;6.50;;;9.40;99.90;;;;;;4994792;28;20107;-81
2022/12/25 12:36:25;;;;;;;;;;;9.40;99.90;;;;;;5026849;28;20063;-81
2022/12/25 12:38:53;;;;;;;10.90;4.20;;;9.40;99.90;;;;;;4995124;28;19925;-81
2022/12/25 12:41:21;;;;;;;10.75;4.88;;;9.50;99.90;;;;;;5025955;28;20219;-81
2022/12/25 12:43:54;;;;;;;9.73;4.47;;;9.70;99.90;;;;;;4997095;28;20129;-81
2022/12/25 12:46:27;;;;;;;;;;;9.50;99.90;;;;;;5031548;28;20401;-82
2022/12/25 12:49:05;;;;;;;8.25;3.80;;;9.50;99.90;;;;;;5030192;28;19925;-81
2022/12/25 12:51:36;;;;;;;9.52;4.07;;;8.90;99.90;;;;;;5015584;28;20062;-80
2022/12/25 12:54:16;;;;;;;10.55;4.05;;;9.50;99.90;;;;;;5030445;28;20128;-80
2022/12/25 12:56:41;;;;;;;10.20;4.47;;;9.50;99.90;;;;;;5031228;28;20045;-80
2022/12/25 12:59:09;;;;;;;9.00;4.05;;;9.50;99.90;;;;;;5030390;28;20068;-80
2022/12/25 13:01:44;;;;;;;9.10;3.92;;;9.50;99.90;;;;;;5029618;28;20099;-79
2022/12/25 13:04:19;;;;;;;12.25;4.22;;;9.50;99.90;;;;;;5014288;28;20404;-80
2022/12/25 13:07:11;;;;;;;10.30;4.28;;;9.50;99.90;;;;;;5029788;28;20046;-79
2022/12/25 13:09:43;;;;;;;10.70;4.13;;;9.50;99.90;;;;;;4998720;28;20057;-80
2022/12/25 13:12:11;;;;;;;12.73;4.65;;;9.50;99.90;;;;;;5030234;28;20038;-82
2022/12/25 13:14:43;;;;;;;15.00;3.90;;;9.50;99.90;;;;;;5013373;28;20099;-79
2022/12/25 13:17:09;;;;;;;18.48;6.25;;;9.60;99.90;;;;;;5030282;28;20045;-79
2022/12/25 13:19:36;;;;;;;9.05;4.07;;;9.50;99.90;;;;;;5013415;28;20086;-80
2022/12/25 13:22:05;;;;;;;13.48;5.15;;;9.60;99.90;;;;;;5014164;28;20052;-80
2022/12/25 13:24:35;;;;;;;16.23;5.00;;;9.50;99.90;;;;;;5030188;28;20049;-81
2022/12/25 13:27:22;;;;;;;8.63;4.47;;;9.60;99.90;;;;;;4997760;28;20049;-80
2022/12/25 13:29:48;;;;;;;12.38;4.75;;;9.60;99.90;;;;;;5013661;28;20124;-81
2022/12/25 13:32:24;;;;;;;12.10;5.07;;;9.60;99.90;;;;;;5013182;28;20191;-81
2022/12/25 13:34:51;;;;;;;11.25;5.00;;;9.60;99.90;;;;;;5013735;28;20042;-80
2022/12/25 13:37:26;;;;;;;8.75;5.15;;;9.50;99.90;;;;;;5013080;28;20595;-81
2022/12/25 13:40:03;;;;;;;13.13;5.18;;;9.60;99.90;;;;;;5029861;28;20053;-79
2022/12/25 13:42:32;;;;;;;12.07;5.30;;;9.60;99.90;;;;;;5030198;28;20041;-79
2022/12/25 13:44:59;;;;;;;11.23;4.50;;;9.60;99.90;;;;;;5013034;28;20064;-79
2022/12/25 13:47:35;;;;;;;16.20;9.05;;;9.50;99.90;;;;;;5029774;28;20045;-79
2022/12/25 13:50:23;;;;;;;13.40;5.60;;;9.60;99.90;;;;;;5012627;28;20053;-79
2022/12/25 13:52:49;;;;;;;12.48;6.00;;;9.50;99.90;;;;;;5012708;28;20056;-79
2022/12/25 13:55:20;;;;;;;17.75;6.72;;;9.50;99.90;;;;;;5029111;28;20049;-79
2022/12/25 13:58:04;;;;;;;10.25;5.45;;;9.50;99.90;;;;;;5029146;28;20482;-79
2022/12/25 14:00:39;;;;;;;9.82;4.82;;;9.50;99.90;;;;;;5030146;28;20381;-80
2022/12/25 14:03:06;;;;;;;12.70;5.68;;;9.50;99.90;;;;;;5012822;28;20055;-79
2022/12/25 14:05:37;;;;;;;18.50;6.55;;;9.50;99.90;;;;;;5013001;28;20037;-79
2022/12/25 14:08:15;;;;;;;16.67;7.03;;;9.50;99.90;;;;;;5029177;28;20505;-79
2022/12/25 14:10:43;;;;;;;16.92;5.50;;;9.70;99.90;;;;;;5030394;28;20052;-79
2022/12/25 14:13:12;;;;;;;14.30;5.97;;;9.50;99.90;;;;;;5030643;28;20037;-80
2022/12/25 14:15:39;;;;;;;20.77;9.40;;;9.50;99.90;;;;;;5030205;28;20045;-80
2022/12/25 14:18:06;;;;;;;10.93;5.43;;;9.50;99.90;;;;;;5029664;28;20081;-80
2022/12/25 14:20:53;;;;;;;13.23;6.85;;;9.50;99.90;;;;;;5028806;28;20092;-79
2022/12/25 14:23:19;;;;;;;12.15;6.50;;;9.50;99.90;;;;;;5029637;28;20049;-80
2022/12/25 14:25:46;;;;;;;25.40;11.50;;;9.50;99.90;;;;;;4996250;28;20128;-79
2022/12/25 14:28:23;;;;;;;23.05;13.00;;;9.50;99.90;;;;;;5011814;28;20506;-79
2022/12/25 14:30:49;;;;;;;19.55;8.35;;;9.50;99.90;;;;;;5029825;28;20481;-79
2022/12/25 14:33:18;;;;;;;15.15;8.95;;;9.50;99.90;;;;;;5029965;28;20042;-80
2022/12/25 14:35:46;;;;;;;13.60;8.90;;;9.50;99.90;;;;;;5030023;28;20132;-78
2022/12/25 14:38:33;;;;;;;18.13;10.02;;;9.50;99.90;;;;;;5028892;28;20546;-79
2022/12/25 14:41:32;;;;;;;21.52;10.20;;;9.50;99.90;;;;;;5028163;28;20053;-79